sensor_id;sensor_type;location;lat;lon;timestamp;temperature;humidity
47382;DHT22;33128;51.580;5.170;2024-02-21T00:02:20;12.50;99.90
47382;DHT22;33128;51.580;5.170;2024-02-21T00:04:45;12.50;99.90
47382;DHT22;33128;51.580;5.170;2024-02-21T00:07:13;12.50;99.90
47382;DHT22;33128;51.580;5.170;2024-02-21T00:09:39;12.50;99.90
47382;DHT22;33128;51.580;5.170;2024-02-21T00:12:05;12.30;99.90
47382;DHT22;33128;51.580;5.170;2024-02-21T00:17:17;12.40;99.90
47382;DHT22;33128;51.580;5.170;2024-02-21T00:19:42;12.30;99.90
47382;DHT22;33128;51.580;5.170;2024-02-21T00:22:08;12.30;99.90
47382;DHT22;33128;51.580;5.170;2024-02-21T00:24:33;12.20;99.90
47382;DHT22;33128;51.580;5.170;2024-02-21T00:26:59;12.30;99.90
47382;DHT22;33128;51.580;5.170;2024-02-21T00:29:24;12.20;99.90
47382;DHT22;33128;51.580;5.170;2024-02-21T00:31:51;12.20;99.90
47382;DHT22;33128;51.580;5.170;2024-02-21T00:34:16;12.20;99.90
47382;DHT22;33128;51.580;5.170;2024-02-21T00:36:42;12.20;99.90
47382;DHT22;33128;51.580;5.170;2024-02-21T00:39:07;12.30;99.90
47382;DHT22;33128;51.580;5.170;2024-02-21T00:41:33;12.20;99.90
47382;DHT22;33128;51.580;5.170;2024-02-21T00:43:58;12.40;99.90
47382;DHT22;33128;51.580;5.170;2024-02-21T00:46:24;12.40;99.90
47382;DHT22;33128;51.580;5.170;2024-02-21T00:48:50;12.40;99.90
47382;DHT22;33128;51.580;5.170;2024-02-21T00:51:16;12.40;99.90
47382;DHT22;33128;51.580;5.170;2024-02-21T00:53:44;12.50;99.90
47382;DHT22;33128;51.580;5.170;2024-02-21T00:56:13;12.40;99.90
47382;DHT22;33128;51.580;5.170;2024-02-21T00:58:38;12.30;99.90
47382;DHT22;33128;51.580;5.170;2024-02-21T01:01:04;12.40;99.90
47382;DHT22;33128;51.580;5.170;2024-02-21T01:03:29;12.40;99.90
47382;DHT22;33128;51.580;5.170;2024-02-21T01:05:55;12.50;99.90
47382;DHT22;33128;51.580;5.170;2024-02-21T01:08:20;12.30;99.90
47382;DHT22;33128;51.580;5.170;2024-02-21T01:10:46;12.50;99.90
47382;DHT22;33128;51.580;5.170;2024-02-21T01:13:11;12.50;99.90
47382;DHT22;33128;51.580;5.170;2024-02-21T01:15:37;12.40;99.90
47382;DHT22;33128;51.580;5.170;2024-02-21T01:18:03;12.40;99.90
47382;DHT22;33128;51.580;5.170;2024-02-21T01:20:30;12.40;99.90
47382;DHT22;33128;51.580;5.170;2024-02-21T01:22:55;12.40;99.90
47382;DHT22;33128;51.580;5.170;2024-02-21T01:25:21;12.50;99.90
47382;DHT22;33128;51.580;5.170;2024-02-21T01:27:50;12.40;99.90
47382;DHT22;33128;51.580;5.170;2024-02-21T01:30:15;12.50;99.90
47382;DHT22;33128;51.580;5.170;2024-02-21T01:32:41;12.40;99.90
47382;DHT22;33128;51.580;5.170;2024-02-21T01:35:07;12.40;99.90
47382;DHT22;33128;51.580;5.170;2024-02-21T01:37:33;12.40;99.90
47382;DHT22;33128;51.580;5.170;2024-02-21T01:40:05;12.30;99.90
47382;DHT22;33128;51.580;5.170;2024-02-21T01:42:31;12.40;99.90
47382;DHT22;33128;51.580;5.170;2024-02-21T01:44:56;12.60;99.90
47382;DHT22;33128;51.580;5.170;2024-02-21T01:47:22;12.60;99.90
47382;DHT22;33128;51.580;5.170;2024-02-21T01:49:48;12.40;99.90
47382;DHT22;33128;51.580;5.170;2024-02-21T01:52:16;12.40;99.90
47382;DHT22;33128;51.580;5.170;2024-02-21T01:54:43;12.50;99.90
47382;DHT22;33128;51.580;5.170;2024-02-21T01:57:09;12.40;99.90
47382;DHT22;33128;51.580;5.170;2024-02-21T01:59:34;12.40;99.90
47382;DHT22;33128;51.580;5.170;2024-02-21T02:02:02;12.30;99.90
47382;DHT22;33128;51.580;5.170;2024-02-21T02:04:27;12.30;99.90
47382;DHT22;33128;51.580;5.170;2024-02-21T02:06:54;12.40;99.90
47382;DHT22;33128;51.580;5.170;2024-02-21T02:09:20;12.30;99.90
47382;DHT22;33128;51.580;5.170;2024-02-21T02:11:45;12.30;99.90
47382;DHT22;33128;51.580;5.170;2024-02-21T02:14:11;12.30;99.90
47382;DHT22;33128;51.580;5.170;2024-02-21T02:16:37;12.40;99.90
47382;DHT22;33128;51.580;5.170;2024-02-21T02:19:02;12.40;99.90
47382;DHT22;33128;51.580;5.170;2024-02-21T02:21:40;12.40;99.90
47382;DHT22;33128;51.580;5.170;2024-02-21T02:24:07;12.50;99.90
47382;DHT22;33128;51.580;5.170;2024-02-21T02:26:36;12.30;99.90
47382;DHT22;33128;51.580;5.170;2024-02-21T02:29:05;12.50;99.90
47382;DHT22;33128;51.580;5.170;2024-02-21T02:31:33;12.60;99.90
47382;DHT22;33128;51.580;5.170;2024-02-21T02:33:59;12.50;99.90
47382;DHT22;33128;51.580;5.170;2024-02-21T02:36:24;12.60;99.90
47382;DHT22;33128;51.580;5.170;2024-02-21T02:38:50;12.50;99.90
47382;DHT22;33128;51.580;5.170;2024-02-21T02:41:16;12.50;99.90
47382;DHT22;33128;51.580;5.170;2024-02-21T02:43:41;12.40;99.90
47382;DHT22;33128;51.580;5.170;2024-02-21T02:46:07;12.40;99.90
47382;DHT22;33128;51.580;5.170;2024-02-21T02:48:32;12.40;99.90
47382;DHT22;33128;51.580;5.170;2024-02-21T02:50:58;12.30;99.90
47382;DHT22;33128;51.580;5.170;2024-02-21T02:53:23;12.40;99.90
47382;DHT22;33128;51.580;5.170;2024-02-21T02:55:49;12.40;99.90
47382;DHT22;33128;51.580;5.170;2024-02-21T02:58:14;12.30;99.90
47382;DHT22;33128;51.580;5.170;2024-02-21T03:00:40;12.20;99.90
47382;DHT22;33128;51.580;5.170;2024-02-21T03:03:05;12.20;99.90
47382;DHT22;33128;51.580;5.170;2024-02-21T03:05:34;12.30;99.90
47382;DHT22;33128;51.580;5.170;2024-02-21T03:07:59;12.40;99.90
47382;DHT22;33128;51.580;5.170;2024-02-21T03:10:28;12.30;99.90
47382;DHT22;33128;51.580;5.170;2024-02-21T03:12:53;12.40;99.90
47382;DHT22;33128;51.580;5.170;2024-02-21T03:15:19;12.30;99.90
47382;DHT22;33128;51.580;5.170;2024-02-21T03:17:45;12.30;99.90
47382;DHT22;33128;51.580;5.170;2024-02-21T03:20:11;12.30;99.90
47382;DHT22;33128;51.580;5.170;2024-02-21T03:22:40;12.40;99.90
47382;DHT22;33128;51.580;5.170;2024-02-21T03:25:06;12.50;99.90
47382;DHT22;33128;51.580;5.170;2024-02-21T03:27:32;12.50;99.90
47382;DHT22;33128;51.580;5.170;2024-02-21T03:29:58;12.50;99.90
47382;DHT22;33128;51.580;5.170;2024-02-21T03:32:24;12.40;99.90
47382;DHT22;33128;51.580;5.170;2024-02-21T03:34:49;12.50;99.90
47382;DHT22;33128;51.580;5.170;2024-02-21T03:37:15;12.50;99.90
47382;DHT22;33128;51.580;5.170;2024-02-21T03:39:41;12.50;99.90
47382;DHT22;33128;51.580;5.170;2024-02-21T03:42:06;12.60;99.90
47382;DHT22;33128;51.580;5.170;2024-02-21T03:44:32;12.50;99.90
47382;DHT22;33128;51.580;5.170;2024-02-21T03:46:59;12.50;99.90
47382;DHT22;33128;51.580;5.170;2024-02-21T03:49:24;12.60;99.90
47382;DHT22;33128;51.580;5.170;2024-02-21T03:51:50;12.50;99.90
47382;DHT22;33128;51.580;5.170;2024-02-21T03:54:15;12.60;99.90
47382;DHT22;33128;51.580;5.170;2024-02-21T03:56:44;12.50;99.90
47382;DHT22;33128;51.580;5.170;2024-02-21T03:59:09;12.50;99.90
47382;DHT22;33128;51.580;5.170;2024-02-21T04:01:35;12.50;99.90
47382;DHT22;33128;51.580;5.170;2024-02-21T04:04:01;12.40;99.90
47382;DHT22;33128;51.580;5.170;2024-02-21T04:06:27;12.40;99.90
47382;DHT22;33128;51.580;5.170;2024-02-21T04:08:53;12.50;99.90
47382;DHT22;33128;51.580;5.170;2024-02-21T04:11:18;12.50;99.90
47382;DHT22;33128;51.580;5.170;2024-02-21T04:13:44;12.40;99.90
47382;DHT22;33128;51.580;5.170;2024-02-21T04:16:10;12.30;99.90
47382;DHT22;33128;51.580;5.170;2024-02-21T04:18:36;12.30;99.90
47382;DHT22;33128;51.580;5.170;2024-02-21T04:21:01;12.30;99.90
47382;DHT22;33128;51.580;5.170;2024-02-21T04:23:28;12.40;99.90
47382;DHT22;33128;51.580;5.170;2024-02-21T04:25:54;12.40;99.90
47382;DHT22;33128;51.580;5.170;2024-02-21T04:28:19;12.40;99.90
47382;DHT22;33128;51.580;5.170;2024-02-21T04:30:45;12.30;99.90
47382;DHT22;33128;51.580;5.170;2024-02-21T04:33:10;12.20;99.90
47382;DHT22;33128;51.580;5.170;2024-02-21T04:35:36;12.30;99.90
47382;DHT22;33128;51.580;5.170;2024-02-21T04:38:05;12.40;99.90
47382;DHT22;33128;51.580;5.170;2024-02-21T04:40:33;12.20;99.90
47382;DHT22;33128;51.580;5.170;2024-02-21T04:42:59;12.10;99.90
47382;DHT22;33128;51.580;5.170;2024-02-21T04:45:24;12.10;99.90
47382;DHT22;33128;51.580;5.170;2024-02-21T04:47:53;12.20;99.90
47382;DHT22;33128;51.580;5.170;2024-02-21T04:50:18;12.30;99.90
47382;DHT22;33128;51.580;5.170;2024-02-21T04:52:44;12.30;99.90
47382;DHT22;33128;51.580;5.170;2024-02-21T04:55:10;12.30;99.90
47382;DHT22;33128;51.580;5.170;2024-02-21T04:57:35;12.10;99.90
47382;DHT22;33128;51.580;5.170;2024-02-21T05:00:01;12.20;99.90
47382;DHT22;33128;51.580;5.170;2024-02-21T05:02:26;12.20;99.90
47382;DHT22;33128;51.580;5.170;2024-02-21T05:04:52;12.20;99.90
47382;DHT22;33128;51.580;5.170;2024-02-21T05:07:18;12.20;99.90
47382;DHT22;33128;51.580;5.170;2024-02-21T05:09:45;12.20;99.90
47382;DHT22;33128;51.580;5.170;2024-02-21T05:12:10;12.20;99.90
47382;DHT22;33128;51.580;5.170;2024-02-21T05:14:36;12.20;99.90
47382;DHT22;33128;51.580;5.170;2024-02-21T05:17:03;12.20;99.90
47382;DHT22;33128;51.580;5.170;2024-02-21T05:19:28;12.20;99.90
47382;DHT22;33128;51.580;5.170;2024-02-21T05:21:54;12.20;99.90
47382;DHT22;33128;51.580;5.170;2024-02-21T05:24:20;12.30;99.90
47382;DHT22;33128;51.580;5.170;2024-02-21T05:26:45;12.30;99.90
47382;DHT22;33128;51.580;5.170;2024-02-21T05:29:14;12.30;99.90
47382;DHT22;33128;51.580;5.170;2024-02-21T05:32:18;12.30;99.90
47382;DHT22;33128;51.580;5.170;2024-02-21T05:34:50;12.40;99.90
47382;DHT22;33128;51.580;5.170;2024-02-21T05:37:16;12.30;99.90
47382;DHT22;33128;51.580;5.170;2024-02-21T05:39:41;12.40;99.90
47382;DHT22;33128;51.580;5.170;2024-02-21T05:42:07;12.50;99.90
47382;DHT22;33128;51.580;5.170;2024-02-21T05:44:32;12.40;99.90
47382;DHT22;33128;51.580;5.170;2024-02-21T05:46:58;12.50;99.90
47382;DHT22;33128;51.580;5.170;2024-02-21T05:49:24;12.60;99.90
47382;DHT22;33128;51.580;5.170;2024-02-21T05:51:49;12.60;99.90
47382;DHT22;33128;51.580;5.170;2024-02-21T05:54:15;12.70;99.90
47382;DHT22;33128;51.580;5.170;2024-02-21T05:56:46;12.70;99.90
47382;DHT22;33128;51.580;5.170;2024-02-21T05:59:12;12.70;99.90
47382;DHT22;33128;51.580;5.170;2024-02-21T06:01:38;12.80;99.90
47382;DHT22;33128;51.580;5.170;2024-02-21T06:04:03;12.80;99.90
47382;DHT22;33128;51.580;5.170;2024-02-21T06:06:29;12.80;99.90
47382;DHT22;33128;51.580;5.170;2024-02-21T06:08:55;12.90;99.90
47382;DHT22;33128;51.580;5.170;2024-02-21T06:11:21;12.80;99.90
47382;DHT22;33128;51.580;5.170;2024-02-21T06:13:46;12.80;99.90
47382;DHT22;33128;51.580;5.170;2024-02-21T06:16:12;13.00;99.90
47382;DHT22;33128;51.580;5.170;2024-02-21T06:18:38;13.20;99.90
47382;DHT22;33128;51.580;5.170;2024-02-21T06:21:06;13.50;99.90
47382;DHT22;33128;51.580;5.170;2024-02-21T06:23:32;13.70;99.90
47382;DHT22;33128;51.580;5.170;2024-02-21T06:25:57;13.80;99.90
47382;DHT22;33128;51.580;5.170;2024-02-21T06:28:23;13.90;99.90
47382;DHT22;33128;51.580;5.170;2024-02-21T06:30:48;14.00;99.90
47382;DHT22;33128;51.580;5.170;2024-02-21T06:33:14;14.00;99.90
47382;DHT22;33128;51.580;5.170;2024-02-21T06:35:39;14.00;99.90
47382;DHT22;33128;51.580;5.170;2024-02-21T06:38:07;14.00;99.90
47382;DHT22;33128;51.580;5.170;2024-02-21T06:40:33;14.10;99.90
47382;DHT22;33128;51.580;5.170;2024-02-21T06:43:04;14.10;99.90
47382;DHT22;33128;51.580;5.170;2024-02-21T06:45:30;14.10;99.90
47382;DHT22;33128;51.580;5.170;2024-02-21T06:47:55;14.10;99.90
47382;DHT22;33128;51.580;5.170;2024-02-21T06:50:21;14.20;99.90
47382;DHT22;33128;51.580;5.170;2024-02-21T06:52:47;14.20;99.90
47382;DHT22;33128;51.580;5.170;2024-02-21T06:55:12;14.20;99.90
47382;DHT22;33128;51.580;5.170;2024-02-21T06:57:38;14.20;99.90
47382;DHT22;33128;51.580;5.170;2024-02-21T07:00:04;14.30;99.90
47382;DHT22;33128;51.580;5.170;2024-02-21T07:02:35;14.30;99.90
47382;DHT22;33128;51.580;5.170;2024-02-21T07:05:01;14.30;99.90
47382;DHT22;33128;51.580;5.170;2024-02-21T07:07:26;14.30;99.90
47382;DHT22;33128;51.580;5.170;2024-02-21T07:09:52;14.30;99.90
47382;DHT22;33128;51.580;5.170;2024-02-21T07:12:19;14.30;99.90
47382;DHT22;33128;51.580;5.170;2024-02-21T07:14:45;14.40;99.90
47382;DHT22;33128;51.580;5.170;2024-02-21T07:17:10;14.40;99.90
47382;DHT22;33128;51.580;5.170;2024-02-21T07:19:36;14.40;99.90
47382;DHT22;33128;51.580;5.170;2024-02-21T07:22:01;14.40;99.90
47382;DHT22;33128;51.580;5.170;2024-02-21T07:24:27;14.40;99.90
47382;DHT22;33128;51.580;5.170;2024-02-21T07:26:52;14.40;99.90
47382;DHT22;33128;51.580;5.170;2024-02-21T07:29:18;14.40;99.90
47382;DHT22;33128;51.580;5.170;2024-02-21T07:31:44;14.40;99.90
47382;DHT22;33128;51.580;5.170;2024-02-21T07:34:10;14.40;99.90
47382;DHT22;33128;51.580;5.170;2024-02-21T07:36:36;14.40;99.90
47382;DHT22;33128;51.580;5.170;2024-02-21T07:39:05;14.40;99.90
47382;DHT22;33128;51.580;5.170;2024-02-21T07:41:51;14.50;99.90
47382;DHT22;33128;51.580;5.170;2024-02-21T07:44:16;14.50;99.90
47382;DHT22;33128;51.580;5.170;2024-02-21T07:46:42;14.50;99.90
47382;DHT22;33128;51.580;5.170;2024-02-21T07:49:08;14.50;99.90
47382;DHT22;33128;51.580;5.170;2024-02-21T07:51:36;14.50;99.90
47382;DHT22;33128;51.580;5.170;2024-02-21T07:54:02;14.60;99.90
47382;DHT22;33128;51.580;5.170;2024-02-21T07:56:29;14.60;99.90
47382;DHT22;33128;51.580;5.170;2024-02-21T07:58:55;14.60;99.90
47382;DHT22;33128;51.580;5.170;2024-02-21T08:01:20;14.60;99.90
47382;DHT22;33128;51.580;5.170;2024-02-21T08:03:46;14.60;99.90
47382;DHT22;33128;51.580;5.170;2024-02-21T08:06:13;14.60;99.90
47382;DHT22;33128;51.580;5.170;2024-02-21T08:08:39;14.60;99.90
47382;DHT22;33128;51.580;5.170;2024-02-21T08:11:04;14.60;99.90
47382;DHT22;33128;51.580;5.170;2024-02-21T08:13:30;14.60;99.90
47382;DHT22;33128;51.580;5.170;2024-02-21T08:15:56;14.70;99.90
47382;DHT22;33128;51.580;5.170;2024-02-21T08:18:22;14.70;99.90
47382;DHT22;33128;51.580;5.170;2024-02-21T08:20:51;14.70;99.90
47382;DHT22;33128;51.580;5.170;2024-02-21T08:23:17;14.70;99.90
47382;DHT22;33128;51.580;5.170;2024-02-21T08:25:43;14.70;99.90
47382;DHT22;33128;51.580;5.170;2024-02-21T08:28:08;14.80;99.90
47382;DHT22;33128;51.580;5.170;2024-02-21T08:30:34;14.80;99.90
47382;DHT22;33128;51.580;5.170;2024-02-21T08:32:59;14.80;99.90
47382;DHT22;33128;51.580;5.170;2024-02-21T08:35:25;14.80;99.90
47382;DHT22;33128;51.580;5.170;2024-02-21T08:37:51;14.80;99.90
47382;DHT22;33128;51.580;5.170;2024-02-21T08:40:16;14.90;99.90
47382;DHT22;33128;51.580;5.170;2024-02-21T08:42:47;14.90;99.90
47382;DHT22;33128;51.580;5.170;2024-02-21T08:45:13;14.90;99.90
47382;DHT22;33128;51.580;5.170;2024-02-21T08:47:41;15.00;99.90
47382;DHT22;33128;51.580;5.170;2024-02-21T08:50:08;15.00;99.90
47382;DHT22;33128;51.580;5.170;2024-02-21T08:52:35;15.00;99.90
47382;DHT22;33128;51.580;5.170;2024-02-21T08:55:01;15.00;99.90
47382;DHT22;33128;51.580;5.170;2024-02-21T08:57:27;15.10;99.90
47382;DHT22;33128;51.580;5.170;2024-02-21T08:59:52;15.10;99.90
47382;DHT22;33128;51.580;5.170;2024-02-21T09:02:18;15.20;99.90
47382;DHT22;33128;51.580;5.170;2024-02-21T09:04:44;15.20;99.90
47382;DHT22;33128;51.580;5.170;2024-02-21T09:07:21;15.20;99.90
47382;DHT22;33128;51.580;5.170;2024-02-21T09:09:56;15.30;99.90
47382;DHT22;33128;51.580;5.170;2024-02-21T09:12:22;15.20;99.90
47382;DHT22;33128;51.580;5.170;2024-02-21T09:14:48;15.20;99.90
47382;DHT22;33128;51.580;5.170;2024-02-21T09:17:16;15.20;99.90
47382;DHT22;33128;51.580;5.170;2024-02-21T09:19:45;15.20;99.90
47382;DHT22;33128;51.580;5.170;2024-02-21T09:22:10;15.10;99.90
47382;DHT22;33128;51.580;5.170;2024-02-21T09:24:39;15.10;99.90
47382;DHT22;33128;51.580;5.170;2024-02-21T09:27:04;15.10;99.90
47382;DHT22;33128;51.580;5.170;2024-02-21T09:29:31;15.10;99.90
47382;DHT22;33128;51.580;5.170;2024-02-21T09:31:59;15.00;99.90
47382;DHT22;33128;51.580;5.170;2024-02-21T09:34:24;15.10;99.90
47382;DHT22;33128;51.580;5.170;2024-02-21T09:36:50;15.10;99.90
47382;DHT22;33128;51.580;5.170;2024-02-21T09:39:15;15.10;99.90
47382;DHT22;33128;51.580;5.170;2024-02-21T09:41:50;15.10;99.90
47382;DHT22;33128;51.580;5.170;2024-02-21T09:44:22;15.00;99.90
47382;DHT22;33128;51.580;5.170;2024-02-21T09:49:49;15.10;99.90
47382;DHT22;33128;51.580;5.170;2024-02-21T09:52:15;15.10;99.90
47382;DHT22;33128;51.580;5.170;2024-02-21T09:54:42;15.10;99.90
47382;DHT22;33128;51.580;5.170;2024-02-21T09:57:10;15.20;99.90
47382;DHT22;33128;51.580;5.170;2024-02-21T09:59:36;15.20;99.90
47382;DHT22;33128;51.580;5.170;2024-02-21T10:02:05;15.20;99.90
47382;DHT22;33128;51.580;5.170;2024-02-21T10:04:31;15.30;99.90
47382;DHT22;33128;51.580;5.170;2024-02-21T10:06:57;15.30;99.90
47382;DHT22;33128;51.580;5.170;2024-02-21T10:09:27;15.40;99.90
47382;DHT22;33128;51.580;5.170;2024-02-21T10:11:53;15.50;99.90
47382;DHT22;33128;51.580;5.170;2024-02-21T10:14:19;15.50;99.90
47382;DHT22;33128;51.580;5.170;2024-02-21T10:16:56;15.60;99.90
47382;DHT22;33128;51.580;5.170;2024-02-21T10:19:24;15.60;99.90
47382;DHT22;33128;51.580;5.170;2024-02-21T10:21:59;15.60;99.90
47382;DHT22;33128;51.580;5.170;2024-02-21T10:24:28;15.60;99.90
47382;DHT22;33128;51.580;5.170;2024-02-21T10:27:04;15.60;99.90
47382;DHT22;33128;51.580;5.170;2024-02-21T10:29:32;15.60;99.90
47382;DHT22;33128;51.580;5.170;2024-02-21T10:32:14;15.70;99.90
47382;DHT22;33128;51.580;5.170;2024-02-21T10:34:41;15.70;99.90
47382;DHT22;33128;51.580;5.170;2024-02-21T10:37:08;15.80;99.90
47382;DHT22;33128;51.580;5.170;2024-02-21T10:39:35;15.80;99.90
47382;DHT22;33128;51.580;5.170;2024-02-21T10:42:02;15.90;99.90
47382;DHT22;33128;51.580;5.170;2024-02-21T10:44:33;15.90;99.90
47382;DHT22;33128;51.580;5.170;2024-02-21T10:46:59;16.00;99.90
47382;DHT22;33128;51.580;5.170;2024-02-21T10:49:26;16.00;99.90
47382;DHT22;33128;51.580;5.170;2024-02-21T10:52:01;15.90;99.90
47382;DHT22;33128;51.580;5.170;2024-02-21T10:54:46;15.90;99.90
47382;DHT22;33128;51.580;5.170;2024-02-21T10:57:16;15.90;99.90
47382;DHT22;33128;51.580;5.170;2024-02-21T10:59:44;15.90;99.90
47382;DHT22;33128;51.580;5.170;2024-02-21T11:02:10;15.90;99.90
47382;DHT22;33128;51.580;5.170;2024-02-21T11:04:36;15.80;99.90
47382;DHT22;33128;51.580;5.170;2024-02-21T11:07:04;15.90;99.90
47382;DHT22;33128;51.580;5.170;2024-02-21T11:09:33;15.80;99.90
47382;DHT22;33128;51.580;5.170;2024-02-21T11:12:02;15.90;99.90
47382;DHT22;33128;51.580;5.170;2024-02-21T11:14:29;15.90;99.90
47382;DHT22;33128;51.580;5.170;2024-02-21T11:16:58;15.90;99.90
47382;DHT22;33128;51.580;5.170;2024-02-21T11:19:27;15.90;99.90
47382;DHT22;33128;51.580;5.170;2024-02-21T11:21:56;16.00;99.90
47382;DHT22;33128;51.580;5.170;2024-02-21T11:24:33;16.10;99.90
47382;DHT22;33128;51.580;5.170;2024-02-21T11:32:14;16.20;99.90
47382;DHT22;33128;51.580;5.170;2024-02-21T11:34:41;16.10;99.90
47382;DHT22;33128;51.580;5.170;2024-02-21T11:37:15;16.00;99.90
47382;DHT22;33128;51.580;5.170;2024-02-21T11:39:41;16.00;99.90
47382;DHT22;33128;51.580;5.170;2024-02-21T11:42:10;15.90;99.90
47382;DHT22;33128;51.580;5.170;2024-02-21T11:44:38;16.00;99.90
47382;DHT22;33128;51.580;5.170;2024-02-21T11:47:07;16.10;99.90
47382;DHT22;33128;51.580;5.170;2024-02-21T11:49:42;16.20;99.90
47382;DHT22;33128;51.580;5.170;2024-02-21T11:52:12;16.30;99.90
47382;DHT22;33128;51.580;5.170;2024-02-21T11:54:41;16.30;99.90
47382;DHT22;33128;51.580;5.170;2024-02-21T11:57:06;16.40;99.90
47382;DHT22;33128;51.580;5.170;2024-02-21T11:59:33;16.40;99.90
47382;DHT22;33128;51.580;5.170;2024-02-21T12:02:02;16.50;99.90
47382;DHT22;33128;51.580;5.170;2024-02-21T12:04:31;16.60;99.90
47382;DHT22;33128;51.580;5.170;2024-02-21T12:07:00;16.70;99.90
47382;DHT22;33128;51.580;5.170;2024-02-21T12:09:29;16.80;99.90
47382;DHT22;33128;51.580;5.170;2024-02-21T12:12:05;16.80;99.90
47382;DHT22;33128;51.580;5.170;2024-02-21T12:14:32;16.90;99.90
47382;DHT22;33128;51.580;5.170;2024-02-21T12:17:02;16.80;99.90
47382;DHT22;33128;51.580;5.170;2024-02-21T12:19:30;16.80;99.90
47382;DHT22;33128;51.580;5.170;2024-02-21T12:21:56;16.80;99.90
47382;DHT22;33128;51.580;5.170;2024-02-21T12:24:25;16.70;99.90
47382;DHT22;33128;51.580;5.170;2024-02-21T12:26:52;16.70;99.90
47382;DHT22;33128;51.580;5.170;2024-02-21T12:29:18;16.60;99.90
47382;DHT22;33128;51.580;5.170;2024-02-21T12:31:44;16.60;99.90
47382;DHT22;33128;51.580;5.170;2024-02-21T12:34:10;16.50;99.90
47382;DHT22;33128;51.580;5.170;2024-02-21T12:36:45;16.50;99.90
47382;DHT22;33128;51.580;5.170;2024-02-21T12:39:13;16.40;99.90
47382;DHT22;33128;51.580;5.170;2024-02-21T12:41:39;16.40;99.90
47382;DHT22;33128;51.580;5.170;2024-02-21T12:44:06;16.30;99.90
47382;DHT22;33128;51.580;5.170;2024-02-21T12:46:35;16.30;99.90
47382;DHT22;33128;51.580;5.170;2024-02-21T12:49:01;16.30;99.90
47382;DHT22;33128;51.580;5.170;2024-02-21T12:51:31;16.40;99.90
47382;DHT22;33128;51.580;5.170;2024-02-21T12:53:57;16.40;99.90
47382;DHT22;33128;51.580;5.170;2024-02-21T12:56:22;16.40;99.90
47382;DHT22;33128;51.580;5.170;2024-02-21T12:58:50;16.40;99.90
47382;DHT22;33128;51.580;5.170;2024-02-21T13:01:18;16.40;99.90
47382;DHT22;33128;51.580;5.170;2024-02-21T13:03:44;16.40;99.90
47382;DHT22;33128;51.580;5.170;2024-02-21T13:06:12;16.30;99.90
47382;DHT22;33128;51.580;5.170;2024-02-21T13:08:37;16.30;99.90
47382;DHT22;33128;51.580;5.170;2024-02-21T13:11:04;16.30;99.90
47382;DHT22;33128;51.580;5.170;2024-02-21T13:13:30;16.30;99.90
47382;DHT22;33128;51.580;5.170;2024-02-21T13:15:57;16.30;99.90
47382;DHT22;33128;51.580;5.170;2024-02-21T13:18:26;16.30;99.90
47382;DHT22;33128;51.580;5.170;2024-02-21T13:20:51;16.30;99.90
47382;DHT22;33128;51.580;5.170;2024-02-21T13:23:17;16.40;99.90
47382;DHT22;33128;51.580;5.170;2024-02-21T13:25:43;16.40;99.90
47382;DHT22;33128;51.580;5.170;2024-02-21T13:28:11;16.40;99.90
47382;DHT22;33128;51.580;5.170;2024-02-21T13:30:36;16.40;99.90
47382;DHT22;33128;51.580;5.170;2024-02-21T13:33:02;16.40;99.90
47382;DHT22;33128;51.580;5.170;2024-02-21T13:35:28;16.40;99.90
47382;DHT22;33128;51.580;5.170;2024-02-21T13:37:54;16.40;99.90
47382;DHT22;33128;51.580;5.170;2024-02-21T13:40:19;16.50;99.90
47382;DHT22;33128;51.580;5.170;2024-02-21T13:42:45;16.40;99.90
47382;DHT22;33128;51.580;5.170;2024-02-21T13:45:11;16.40;99.90
47382;DHT22;33128;51.580;5.170;2024-02-21T13:47:36;16.40;99.90
47382;DHT22;33128;51.580;5.170;2024-02-21T13:50:04;16.30;99.90
47382;DHT22;33128;51.580;5.170;2024-02-21T13:52:42;16.30;99.90
47382;DHT22;33128;51.580;5.170;2024-02-21T13:55:11;16.30;99.90
47382;DHT22;33128;51.580;5.170;2024-02-21T13:57:40;16.20;99.90
47382;DHT22;33128;51.580;5.170;2024-02-21T14:00:06;16.20;99.90
47382;DHT22;33128;51.580;5.170;2024-02-21T14:02:37;16.20;99.90
47382;DHT22;33128;51.580;5.170;2024-02-21T14:05:04;16.20;99.90
47382;DHT22;33128;51.580;5.170;2024-02-21T14:07:31;16.10;99.90
47382;DHT22;33128;51.580;5.170;2024-02-21T14:10:01;16.10;99.90
47382;DHT22;33128;51.580;5.170;2024-02-21T14:12:27;16.10;99.90
47382;DHT22;33128;51.580;5.170;2024-02-21T14:14:52;16.10;99.90
47382;DHT22;33128;51.580;5.170;2024-02-21T14:17:18;16.10;99.90
47382;DHT22;33128;51.580;5.170;2024-02-21T14:19:44;16.10;99.90
47382;DHT22;33128;51.580;5.170;2024-02-21T14:22:09;16.00;99.90
47382;DHT22;33128;51.580;5.170;2024-02-21T14:24:36;16.00;99.90
47382;DHT22;33128;51.580;5.170;2024-02-21T14:27:02;16.00;99.90
47382;DHT22;33128;51.580;5.170;2024-02-21T14:29:29;16.00;99.90
47382;DHT22;33128;51.580;5.170;2024-02-21T14:31:54;16.00;99.90
47382;DHT22;33128;51.580;5.170;2024-02-21T14:34:20;16.00;99.90
47382;DHT22;33128;51.580;5.170;2024-02-21T14:36:45;15.90;99.90
47382;DHT22;33128;51.580;5.170;2024-02-21T14:39:11;15.90;99.90
47382;DHT22;33128;51.580;5.170;2024-02-21T14:41:37;16.00;99.90
47382;DHT22;33128;51.580;5.170;2024-02-21T14:44:04;15.90;99.90
47382;DHT22;33128;51.580;5.170;2024-02-21T14:46:30;15.90;99.90
47382;DHT22;33128;51.580;5.170;2024-02-21T14:48:56;15.90;99.90
47382;DHT22;33128;51.580;5.170;2024-02-21T14:51:22;15.80;99.90
47382;DHT22;33128;51.580;5.170;2024-02-21T14:53:50;15.80;99.90
47382;DHT22;33128;51.580;5.170;2024-02-21T14:56:16;15.80;99.90
47382;DHT22;33128;51.580;5.170;2024-02-21T14:58:42;15.80;99.90
47382;DHT22;33128;51.580;5.170;2024-02-21T15:01:08;15.80;99.90
47382;DHT22;33128;51.580;5.170;2024-02-21T15:03:34;15.80;99.90
47382;DHT22;33128;51.580;5.170;2024-02-21T15:06:00;15.80;99.90
47382;DHT22;33128;51.580;5.170;2024-02-21T15:08:27;15.80;99.90
47382;DHT22;33128;51.580;5.170;2024-02-21T15:10:53;15.80;99.90
47382;DHT22;33128;51.580;5.170;2024-02-21T15:13:19;15.80;99.90
47382;DHT22;33128;51.580;5.170;2024-02-21T15:15:45;15.80;99.90
47382;DHT22;33128;51.580;5.170;2024-02-21T15:18:13;15.70;99.90
47382;DHT22;33128;51.580;5.170;2024-02-21T15:20:40;15.70;99.90
47382;DHT22;33128;51.580;5.170;2024-02-21T15:23:05;15.70;99.90
47382;DHT22;33128;51.580;5.170;2024-02-21T15:25:31;15.70;99.90
47382;DHT22;33128;51.580;5.170;2024-02-21T15:27:57;15.70;99.90
47382;DHT22;33128;51.580;5.170;2024-02-21T15:30:23;15.70;99.90
47382;DHT22;33128;51.580;5.170;2024-02-21T15:32:48;15.70;99.90
47382;DHT22;33128;51.580;5.170;2024-02-21T15:35:14;15.70;99.90
47382;DHT22;33128;51.580;5.170;2024-02-21T15:37:40;15.70;99.90
47382;DHT22;33128;51.580;5.170;2024-02-21T15:40:06;15.60;99.90